Flight Track Log - Related Links

Times and Time Zones

All times are in EDT time to prevent confusion due to time zone crossing. See the GPD20 flight status page for this flight to view local times or setup timezone preferences in your user account.

Time Position Orientation Groundspeed Altitude Reporting Facility
EDT Latitude Longitude Course Direction KTS MPH feet Rate Location/Type
Fri 07:48:00 PM -19.3013 -160.8948 130° Southeast  Level Estimated
Fri 07:49:00 PM -19.2769 -160.8637 50° Northeast  Level Estimated
Fri 07:50:00 PM -19.2525 -160.8325 50° Northeast  Level Estimated
Fri 07:51:00 PM -19.2280 -160.8014 50° Northeast  Level Estimated
Fri 07:52:00 PM -19.2036 -160.7702 50° Northeast  Level Estimated
Fri 07:53:00 PM -19.1792 -160.7391 50° Northeast  Level Estimated
Fri 07:54:00 PM -19.1547 -160.7080 50° Northeast  Level Estimated
Fri 07:55:00 PM -19.1313 -160.6782 50° Northeast  Level Estimated
Fri 07:56:00 PM -19.1079 -160.6485 50° Northeast  Level Estimated
Fri 07:57:00 PM -19.0845 -160.6187 50° Northeast  Level Estimated
Fri 07:58:00 PM -19.0610 -160.5889 50° Northeast  Level Estimated
Fri 07:59:00 PM -19.0376 -160.5592 50° Northeast  Level Estimated
Fri 08:00:00 PM -19.0142 -160.5294 50° Northeast  Level Estimated
Fri 08:01:00 PM -18.9907 -160.4997 50° Northeast  Level Estimated
Fri 08:02:00 PM -18.9673 -160.4700 50° Northeast  Level Estimated
Fri 08:03:00 PM -18.9438 -160.4403 50° Northeast  Level Estimated
Fri 08:04:00 PM -18.9204 -160.4106 50° Northeast  Level Estimated
Fri 08:05:00 PM -18.8969 -160.3809 50° Northeast  Level Estimated
Fri 08:06:00 PM -18.8734 -160.3512 50° Northeast  Level Estimated
Fri 08:07:00 PM -18.8500 -160.3215 50° Northeast  Level Estimated
Fri 08:08:00 PM -18.8265 -160.2918 50° Northeast  Level Estimated
Fri 08:09:00 PM -18.8030 -160.2622 50° Northeast  Level Estimated
Fri 08:10:00 PM -18.7795 -160.2325 50° Northeast  Level Estimated
Fri 08:11:00 PM -18.7560 -160.2029 50° Northeast  Level Estimated
Fri 08:12:00 PM -18.7325 -160.1732 50° Northeast  Level Estimated
Fri 08:13:00 PM -18.7090 -160.1436 50° Northeast  Level Estimated
Fri 08:14:00 PM -18.6855 -160.1140 50° Northeast  Level Estimated
Fri 08:15:00 PM -18.6620 -160.0844 50° Northeast  Level Estimated
Fri 08:16:00 PM -18.6385 -160.0548 50° Northeast  Level Estimated
Fri 08:17:00 PM -18.6150 -160.0252 50° Northeast  Level Estimated
Fri 08:18:00 PM -18.5915 -159.9956 50° Northeast  Level Estimated
Fri 08:19:00 PM -18.5679 -159.9660 50° Northeast  Level Estimated
Fri 08:20:00 PM -18.5444 -159.9364 50° Northeast  Level Estimated
Fri 08:21:00 PM -18.5209 -159.9068 50° Northeast  Level Estimated
Fri 08:22:00 PM -18.4973 -159.8773 50° Northeast  Level Estimated
Fri 08:23:00 PM -18.4738 -159.8477 50° Northeast  Level Estimated
Fri 08:24:00 PM -18.4502 -159.8182 50° Northeast  Level Estimated
Fri 08:25:00 PM -18.4267 -159.7887 50° Northeast  Level Estimated
Fri 08:26:00 PM -18.4031 -159.7592 50° Northeast  Level Estimated
Fri 08:27:00 PM -18.3796 -159.7296 50° Northeast  Level Estimated
Fri 08:28:00 PM -18.3560 -159.7001 50° Northeast  Level Estimated
Fri 08:29:00 PM -18.3324 -159.6706 50° Northeast  Level Estimated
Fri 08:30:00 PM -18.3088 -159.6411 50° Northeast  Level Estimated
Fri 08:31:00 PM -18.2853 -159.6116 50° Northeast  Level Estimated
Fri 08:32:00 PM -18.2617 -159.5822 50° Northeast  Level Estimated
Fri 08:33:00 PM -18.2381 -159.5527 50° Northeast  Level Estimated
Fri 08:34:00 PM -18.2145 -159.5232 50° Northeast  Level Estimated
Fri 08:35:00 PM -18.1909 -159.4938 50° Northeast  Level Estimated
Fri 08:36:00 PM -18.1673 -159.4644 50° Northeast  Level Estimated
Fri 08:37:00 PM -18.1437 -159.4349 50° Northeast  Level Estimated
Fri 08:38:00 PM -18.1201 -159.4055 50° Northeast  Level Estimated
Fri 08:39:00 PM -18.0964 -159.3761 50° Northeast  Level Estimated
Fri 08:40:00 PM -18.0728 -159.3466 50° Northeast  Level Estimated
Fri 08:41:00 PM -18.0492 -159.3172 50° Northeast  Level Estimated
Fri 08:42:00 PM -18.0256 -159.2878 50° Northeast  Level Estimated
Fri 08:43:00 PM -18.0019 -159.2585 50° Northeast  Level Estimated
Fri 08:44:00 PM -17.9783 -159.2291 50° Northeast  Level Estimated
Fri 08:45:00 PM -17.9546 -159.1997 50° Northeast  Level Estimated
Fri 08:46:00 PM -17.9310 -159.1703 50° Northeast  Level Estimated
Fri 08:47:00 PM -17.9073 -159.1410 50° Northeast  Level Estimated
Fri 08:48:00 PM -17.8837 -159.1116 50° Northeast  Level Estimated
Fri 08:49:00 PM -17.8600 -159.0823 50° Northeast  Level Estimated
Fri 08:50:00 PM -17.8363 -159.0529 50° Northeast  Level Estimated
Fri 08:51:00 PM -17.8127 -159.0236 50° Northeast  Level Estimated
Fri 08:52:00 PM -17.7890 -158.9943 50° Northeast  Level Estimated
Fri 08:53:00 PM -17.7653 -158.9650 50° Northeast  Level Estimated
Fri 08:54:00 PM -17.7416 -158.9357 50° Northeast  Level Estimated
Fri 08:55:00 PM -17.7180 -158.9064 50° Northeast  Level Estimated
Fri 08:56:00 PM -17.6943 -158.8771 50° Northeast  Level Estimated
Fri 08:57:00 PM -17.6706 -158.8478 50° Northeast  Level Estimated
Fri 08:58:00 PM -17.6469 -158.8185 50° Northeast  Level Estimated
Fri 08:59:00 PM -17.6231 -158.7893 50° Northeast  Level Estimated
Fri 09:00:00 PM -17.5994 -158.7600 50° Northeast  Level Estimated
Fri 09:01:00 PM -17.5757 -158.7308 50° Northeast  Level Estimated
Fri 09:02:00 PM -17.5520 -158.7015 50° Northeast  Level Estimated
Fri 09:03:00 PM -17.5283 -158.6723 50° Northeast  Level Estimated
Fri 09:04:00 PM -17.5046 -158.6431 50° Northeast  Level Estimated
Fri 09:05:00 PM -17.4808 -158.6139 50° Northeast  Level Estimated
Fri 09:06:00 PM -17.4571 -158.5847 50° Northeast  Level Estimated
Fri 09:07:00 PM -17.4333 -158.5555 50° Northeast  Level Estimated
Fri 09:08:00 PM -17.4096 -158.5262 50° Northeast  Level Estimated
Fri 09:09:00 PM -17.3859 -158.4971 50° Northeast  Level Estimated
Fri 09:10:00 PM -17.3621 -158.4679 50° Northeast  Level Estimated
Fri 09:11:00 PM -17.3384 -158.4387 50° Northeast  Level Estimated
Fri 09:12:00 PM -17.3146 -158.4095 50° Northeast  Level Estimated
Fri 09:13:00 PM -17.2908 -158.3804 50° Northeast  Level Estimated
Fri 09:14:00 PM -17.2670 -158.3512 50° Northeast  Level Estimated
Fri 09:15:00 PM -17.2433 -158.3221 50° Northeast  Level Estimated
Fri 09:16:00 PM -17.2195 -158.2930 49° Northeast  Level Estimated
Fri 09:17:00 PM -17.1957 -158.2638 49° Northeast  Level Estimated
Fri 09:18:00 PM -17.1719 -158.2347 49° Northeast  Level Estimated
Fri 09:19:00 PM -17.1481 -158.2056 49° Northeast  Level Estimated
Fri 09:20:00 PM -17.1243 -158.1765 49° Northeast  Level Estimated
Fri 09:21:00 PM -17.1005 -158.1474 49° Northeast  Level Estimated
Fri 09:22:00 PM -17.0767 -158.1183 49° Northeast  Level Estimated
Fri 09:23:00 PM -17.0529 -158.0892 49° Northeast  Level Estimated
Fri 09:24:00 PM -17.0291 -158.0601 49° Northeast  Level Estimated
Fri 09:25:00 PM -17.0053 -158.0311 49° Northeast  Level Estimated
Fri 09:26:00 PM -16.9815 -158.0020 49° Northeast  Level Estimated
Fri 09:27:00 PM -16.9577 -157.9729 49° Northeast  Level Estimated
Fri 09:28:00 PM -16.9338 -157.9439 49° Northeast  Level Estimated
Fri 09:29:00 PM -16.9100 -157.9149 49° Northeast  Level Estimated
Fri 09:30:00 PM -16.8862 -157.8858 49° Northeast  Level Estimated
Fri 09:31:00 PM -16.8623 -157.8568 49° Northeast  Level Estimated
Fri 09:32:00 PM -16.8385 -157.8278 49° Northeast  Level Estimated
Fri 09:33:00 PM -16.8146 -157.7988 49° Northeast  Level Estimated
Fri 09:34:00 PM -16.7908 -157.7698 49° Northeast  Level Estimated
Fri 09:35:00 PM -16.7669 -157.7408 49° Northeast  Level Estimated
Fri 09:36:00 PM -16.7431 -157.7118 49° Northeast  Level Estimated
Fri 09:37:00 PM -16.7192 -157.6828 49° Northeast  Level Estimated
Fri 09:38:00 PM -16.6953 -157.6539 49° Northeast  Level Estimated
Fri 09:39:00 PM -16.6715 -157.6249 49° Northeast  Level Estimated
Fri 09:40:00 PM -16.6476 -157.5959 49° Northeast  Level Estimated
Fri 09:41:00 PM -16.6237 -157.5670 49° Northeast  Level Estimated

Login

Don't have an account? Register now (free) for customized features, flight alerts, and more!